createdAt,value
2022-12-16T00:01:50.798Z,15.03
2022-12-16T00:04:18.379Z,15.37
2022-12-16T00:06:44.876Z,15.20
2022-12-16T00:09:11.361Z,14.23
2022-12-16T00:11:37.950Z,16.50
2022-12-16T00:14:04.508Z,15.40
2022-12-16T00:16:31.231Z,15.13
2022-12-16T00:18:57.716Z,15.07
2022-12-16T00:21:28.781Z,14.80
2022-12-16T00:23:58.319Z,16.77
2022-12-16T00:26:25.334Z,14.57
2022-12-16T00:28:51.803Z,16.50
2022-12-16T00:31:18.381Z,16.23
2022-12-16T00:33:45.593Z,15.80
2022-12-16T00:36:12.150Z,16.67
2022-12-16T00:38:38.603Z,15.80
2022-12-16T00:41:05.414Z,16.00
2022-12-16T00:43:32.305Z,15.47
2022-12-16T00:45:59.014Z,15.50
2022-12-16T00:48:25.691Z,15.50
2022-12-16T00:50:55.284Z,15.37
2022-12-16T00:53:24.144Z,16.37
2022-12-16T00:55:50.877Z,15.77
2022-12-16T00:58:18.862Z,14.63
2022-12-16T01:00:45.446Z,15.33
2022-12-16T01:03:16.717Z,15.80
2022-12-16T01:05:46.102Z,14.90
2022-12-16T01:08:12.883Z,15.13
2022-12-16T01:10:39.396Z,15.57
2022-12-16T01:13:05.882Z,16.70
2022-12-16T01:15:32.578Z,14.97
2022-12-16T01:17:59.382Z,14.80
2022-12-16T01:20:25.861Z,15.13
2022-12-16T01:22:52.329Z,15.50
2022-12-16T01:25:18.836Z,15.23
2022-12-16T01:27:45.399Z,14.83
2022-12-16T01:30:12.446Z,16.03
2022-12-16T01:32:39.251Z,15.97
2022-12-16T01:35:14.198Z,15.77
2022-12-16T01:37:50.062Z,14.97
2022-12-16T01:40:19.418Z,15.43
2022-12-16T01:42:46.155Z,15.57
2022-12-16T01:45:24.840Z,15.50
2022-12-16T01:47:56.165Z,14.47
2022-12-16T01:53:04.921Z,15.50
2022-12-16T01:55:36.344Z,14.50
2022-12-16T01:58:08.996Z,15.30
2022-12-16T02:00:37.438Z,16.13
2022-12-16T02:03:05.238Z,16.43
2022-12-16T02:05:35.471Z,16.40
2022-12-16T02:08:10.708Z,15.73
2022-12-16T02:10:42.976Z,15.50
2022-12-16T02:13:21.856Z,15.50
2022-12-16T02:16:19.868Z,14.73
2022-12-16T02:18:58.545Z,14.40
2022-12-16T02:22:04.269Z,14.97
2022-12-16T02:25:18.208Z,15.60
2022-12-16T02:28:09.415Z,15.20
2022-12-16T02:30:48.079Z,15.17
2022-12-16T02:33:14.763Z,16.17
2022-12-16T02:36:00.435Z,14.60
2022-12-16T02:38:35.909Z,13.80
2022-12-16T02:41:06.085Z,16.23
2022-12-16T02:44:05.695Z,15.80
2022-12-16T02:46:34.185Z,15.87
2022-12-16T02:49:26.845Z,16.03
2022-12-16T02:51:54.461Z,14.97
2022-12-16T02:54:20.947Z,16.03
2022-12-16T02:57:18.909Z,15.90
2022-12-16T02:59:54.972Z,15.63
2022-12-16T03:02:46.287Z,15.93
2022-12-16T03:05:42.695Z,16.33
2022-12-16T03:08:19.177Z,15.77
2022-12-16T03:10:52.659Z,16.40
2022-12-16T03:13:21.514Z,16.60
2022-12-16T03:15:52.413Z,15.30
2022-12-16T03:18:20.379Z,15.27
2022-12-16T03:20:55.721Z,15.60
2022-12-16T03:23:29.557Z,16.90
2022-12-16T03:26:03.261Z,15.93
2022-12-16T03:28:50.846Z,15.57
2022-12-16T03:31:27.614Z,16.83
2022-12-16T03:34:04.114Z,17.23
2022-12-16T03:36:35.045Z,17.37
2022-12-16T03:39:05.674Z,16.73
2022-12-16T03:41:33.743Z,15.40
2022-12-16T03:44:00.624Z,16.10
2022-12-16T03:46:27.586Z,15.60
2022-12-16T03:48:54.109Z,15.67
2022-12-16T03:51:20.846Z,16.70
2022-12-16T03:53:47.461Z,15.90
2022-12-16T03:56:14.157Z,15.73
2022-12-16T03:58:40.927Z,15.83
2022-12-16T04:01:09.546Z,16.20
2022-12-16T04:03:37.579Z,16.50
2022-12-16T04:06:04.735Z,15.77
2022-12-16T04:08:31.282Z,16.37
2022-12-16T04:11:16.530Z,16.27
2022-12-16T04:14:01.536Z,16.77
2022-12-16T04:16:48.860Z,16.27
2022-12-16T04:19:44.467Z,16.70
2022-12-16T04:22:42.829Z,16.83
2022-12-16T04:25:16.006Z,16.67
2022-12-16T04:27:47.039Z,16.30
2022-12-16T04:30:19.060Z,17.70
2022-12-16T04:33:10.262Z,16.60
2022-12-16T04:35:55.763Z,16.53
2022-12-16T04:38:41.300Z,16.00
2022-12-16T04:41:26.708Z,18.47
2022-12-16T04:44:11.574Z,15.87
2022-12-16T04:46:56.673Z,18.10
2022-12-16T04:49:41.558Z,17.27
2022-12-16T04:52:27.023Z,17.23
2022-12-16T04:55:12.247Z,16.97
2022-12-16T04:57:57.676Z,16.70
2022-12-16T05:00:43.288Z,16.30
2022-12-16T05:03:28.214Z,15.90
2022-12-16T05:06:13.430Z,16.43
2022-12-16T05:08:58.246Z,14.87
2022-12-16T05:11:43.050Z,16.83
2022-12-16T05:14:27.899Z,16.13
2022-12-16T05:17:13.066Z,16.43
2022-12-16T05:19:57.909Z,16.97
2022-12-16T05:22:42.845Z,17.87
2022-12-16T05:25:29.249Z,15.90
2022-12-16T05:28:14.596Z,16.77
2022-12-16T05:30:59.613Z,17.90
2022-12-16T05:33:44.709Z,18.37
2022-12-16T05:36:30.336Z,17.67
2022-12-16T05:39:15.192Z,17.40
2022-12-16T05:42:00.513Z,18.50
2022-12-16T05:44:45.870Z,18.97
2022-12-16T05:47:31.353Z,17.50
2022-12-16T05:50:16.558Z,16.60
2022-12-16T05:53:08.559Z,17.57
2022-12-16T05:55:53.359Z,17.13
2022-12-16T05:58:38.717Z,17.23
2022-12-16T06:01:24.679Z,17.23
2022-12-16T06:04:15.593Z,18.57
2022-12-16T06:07:02.667Z,18.37
2022-12-16T06:09:50.655Z,18.70
2022-12-16T06:12:40.044Z,17.17
2022-12-16T06:15:25.742Z,17.33
2022-12-16T06:18:10.763Z,17.23
2022-12-16T06:20:55.660Z,16.80
2022-12-16T06:23:40.520Z,17.23
2022-12-16T06:26:26.335Z,17.47
2022-12-16T06:29:11.182Z,17.23
2022-12-16T06:31:56.154Z,18.40
2022-12-16T06:34:41.513Z,18.43
2022-12-16T06:37:26.529Z,17.37
2022-12-16T06:40:11.465Z,18.27
2022-12-16T06:43:00.361Z,38.53
2022-12-16T06:45:46.207Z,35.60
2022-12-16T06:48:31.790Z,20.57
2022-12-16T06:51:17.035Z,18.80
2022-12-16T06:54:03.655Z,18.77
2022-12-16T06:56:48.591Z,17.83
2022-12-16T06:59:33.574Z,18.23
2022-12-16T07:02:18.882Z,18.23
2022-12-16T07:05:03.778Z,17.30
2022-12-16T07:07:56.421Z,18.63
2022-12-16T07:10:41.490Z,18.13
2022-12-16T07:13:26.617Z,18.13
2022-12-16T07:16:11.778Z,18.20
2022-12-16T07:18:57.428Z,18.13
2022-12-16T07:21:42.299Z,16.77
2022-12-16T07:24:28.267Z,18.90
2022-12-16T07:27:13.531Z,18.53
2022-12-16T07:29:58.611Z,17.27
2022-12-16T07:32:44.240Z,18.33
2022-12-16T07:35:46.454Z,19.23
2022-12-16T07:38:31.841Z,17.63
2022-12-16T07:41:16.708Z,17.67
2022-12-16T07:44:01.592Z,17.53
2022-12-16T07:46:46.559Z,18.00
2022-12-16T07:49:45.141Z,18.20
2022-12-16T07:52:29.918Z,17.33
2022-12-16T07:55:14.796Z,17.63
2022-12-16T07:58:00.642Z,18.30
2022-12-16T08:00:45.624Z,18.40
2022-12-16T08:03:31.046Z,17.80
2022-12-16T08:06:16.502Z,17.27
2022-12-16T08:09:01.807Z,17.53
2022-12-16T08:11:46.967Z,17.80
2022-12-16T08:14:32.034Z,18.27
2022-12-16T08:17:16.879Z,17.23
2022-12-16T08:20:02.238Z,17.77
2022-12-16T08:22:47.386Z,17.53
2022-12-16T08:25:32.267Z,18.50
2022-12-16T08:28:17.414Z,18.80
2022-12-16T08:31:02.472Z,17.10
2022-12-16T08:33:47.433Z,20.37
2022-12-16T08:36:32.659Z,17.97
2022-12-16T08:39:17.537Z,17.57
2022-12-16T08:42:02.494Z,19.23
2022-12-16T08:44:47.785Z,18.67
2022-12-16T08:47:32.825Z,18.37
2022-12-16T08:50:17.836Z,19.57
2022-12-16T08:53:03.146Z,18.40
2022-12-16T08:55:49.326Z,18.97
2022-12-16T08:58:34.234Z,20.40
2022-12-16T09:01:19.212Z,19.60
2022-12-16T09:04:04.508Z,18.33
2022-12-16T09:06:49.387Z,18.30
2022-12-16T09:09:34.287Z,18.43
2022-12-16T09:12:19.144Z,18.90
2022-12-16T09:15:04.000Z,18.50
2022-12-16T09:17:48.915Z,19.13
2022-12-16T09:20:34.264Z,18.70
2022-12-16T09:23:23.638Z,20.43
2022-12-16T09:26:08.712Z,19.63
2022-12-16T09:28:53.925Z,20.17
2022-12-16T09:31:39.816Z,19.90
2022-12-16T09:34:24.755Z,20.10
2022-12-16T09:37:10.083Z,19.23
2022-12-16T09:39:55.039Z,19.73
2022-12-16T09:43:07.217Z,19.10
2022-12-16T09:46:07.403Z,19.87
2022-12-16T09:49:24.515Z,19.17
2022-12-16T09:52:16.506Z,18.83
2022-12-16T09:55:05.240Z,19.47
2022-12-16T09:57:54.116Z,20.00
2022-12-16T10:00:43.377Z,19.90
2022-12-16T10:03:52.929Z,19.03
2022-12-16T10:06:51.434Z,19.60
2022-12-16T10:10:02.844Z,19.23
2022-12-16T10:13:29.673Z,19.67
2022-12-16T10:16:26.119Z,18.73
2022-12-16T10:19:21.257Z,18.43
2022-12-16T10:22:11.175Z,18.23
2022-12-16T10:25:14.188Z,24.27
2022-12-16T10:28:04.707Z,20.77
2022-12-16T10:30:52.675Z,19.03
2022-12-16T10:33:40.307Z,21.83
2022-12-16T10:36:32.922Z,19.80
2022-12-16T10:39:25.688Z,19.10
2022-12-16T10:42:12.737Z,19.03
2022-12-16T10:45:14.296Z,18.43
2022-12-16T10:47:59.477Z,19.10
2022-12-16T10:50:44.514Z,19.80
2022-12-16T10:53:41.579Z,19.13
2022-12-16T10:56:45.650Z,19.97
2022-12-16T10:59:30.717Z,19.07
2022-12-16T11:02:20.495Z,19.17
2022-12-16T11:05:08.067Z,20.00
2022-12-16T11:07:56.331Z,18.63
2022-12-16T11:11:04.288Z,19.80
2022-12-16T11:13:55.976Z,19.50
2022-12-16T11:16:46.691Z,19.47
2022-12-16T11:19:44.667Z,20.17
2022-12-16T11:22:39.108Z,20.07
2022-12-16T11:25:37.928Z,18.90
2022-12-16T11:28:35.323Z,19.13
2022-12-16T11:31:34.646Z,18.33
2022-12-16T11:34:21.554Z,19.87
2022-12-16T11:37:11.082Z,20.60
2022-12-16T11:39:56.961Z,18.53
2022-12-16T11:42:47.181Z,18.50
2022-12-16T11:45:35.468Z,18.83
2022-12-16T11:49:01.377Z,19.37
2022-12-16T11:51:50.570Z,19.63
2022-12-16T11:54:42.315Z,19.53
2022-12-16T11:57:41.933Z,20.47
2022-12-16T12:00:33.760Z,19.33
2022-12-16T12:03:32.453Z,19.17
2022-12-16T12:06:30.958Z,20.03
2022-12-16T12:09:27.110Z,19.13
2022-12-16T12:12:31.011Z,19.70
2022-12-16T12:15:33.442Z,19.53
2022-12-16T12:18:24.759Z,20.20
2022-12-16T12:21:29.890Z,20.07
2022-12-16T12:24:31.422Z,20.67
2022-12-16T12:27:38.906Z,20.20
2022-12-16T12:30:41.828Z,20.07
2022-12-16T12:33:48.907Z,21.07
2022-12-16T12:36:45.992Z,20.03
2022-12-16T12:39:38.542Z,19.20
2022-12-16T12:42:49.187Z,19.50
2022-12-16T12:46:06.195Z,19.33
2022-12-16T12:49:00.488Z,19.63
2022-12-16T12:52:18.237Z,20.73
2022-12-16T12:55:23.549Z,20.63
2022-12-16T12:58:10.910Z,19.50
2022-12-16T13:01:04.085Z,20.90
2022-12-16T13:04:00.788Z,20.87
2022-12-16T13:06:46.714Z,20.87
2022-12-16T13:10:27.416Z,19.53
2022-12-16T13:13:36.196Z,20.87
2022-12-16T13:16:23.992Z,21.63
2022-12-16T13:19:47.580Z,22.50
2022-12-16T13:22:53.888Z,21.43
2022-12-16T13:26:03.535Z,19.57
2022-12-16T13:28:52.089Z,21.73
2022-12-16T13:31:38.230Z,21.03
2022-12-16T13:34:42.443Z,22.37
2022-12-16T13:37:44.548Z,21.40
2022-12-16T13:40:40.197Z,21.07
2022-12-16T13:43:55.959Z,19.70
2022-12-16T13:47:18.525Z,19.87
2022-12-16T13:50:03.601Z,21.30
2022-12-16T13:53:03.959Z,21.70
2022-12-16T13:55:54.087Z,21.50
2022-12-16T13:58:50.445Z,20.23
2022-12-16T14:01:41.396Z,22.37
2022-12-16T14:04:29.307Z,22.00
2022-12-16T14:07:24.441Z,21.70
2022-12-16T14:10:09.930Z,21.43
2022-12-16T14:13:16.794Z,21.57
2022-12-16T14:16:33.226Z,20.47
2022-12-16T14:19:40.201Z,23.73
2022-12-16T14:22:40.715Z,22.83
2022-12-16T14:25:33.999Z,23.10
2022-12-16T14:28:24.357Z,26.23
2022-12-16T14:31:22.841Z,23.23
2022-12-16T14:34:13.275Z,23.33
2022-12-16T14:36:59.079Z,22.47
2022-12-16T14:39:48.938Z,24.03
2022-12-16T14:42:52.862Z,24.77
2022-12-16T14:45:38.014Z,23.17
2022-12-16T14:48:50.089Z,25.27
2022-12-16T14:51:41.026Z,23.33
2022-12-16T14:54:54.180Z,24.27
2022-12-16T14:57:48.478Z,24.93
2022-12-16T15:00:43.019Z,24.93
2022-12-16T15:03:50.458Z,23.87
2022-12-16T15:06:45.417Z,26.07
2022-12-16T15:09:40.294Z,25.73
2022-12-16T15:12:28.814Z,24.57
2022-12-16T15:15:15.349Z,25.80
2022-12-16T15:18:07.514Z,27.57
2022-12-16T15:20:56.680Z,27.00
2022-12-16T15:23:48.547Z,26.37
2022-12-16T15:26:43.238Z,25.13
2022-12-16T15:29:47.614Z,27.10
2022-12-16T15:32:54.167Z,27.17
2022-12-16T15:36:04.847Z,27.97
2022-12-16T15:38:52.180Z,26.97
2022-12-16T15:41:49.903Z,28.17
2022-12-16T15:44:40.791Z,27.83
2022-12-16T15:47:39.403Z,31.27
2022-12-16T15:50:25.446Z,29.53
2022-12-16T15:53:11.715Z,28.47
2022-12-16T15:56:04.566Z,43.90
2022-12-16T15:58:50.261Z,31.77
2022-12-16T16:01:37.707Z,28.27
2022-12-16T16:04:23.018Z,29.07
2022-12-16T16:07:10.607Z,27.77
2022-12-16T16:09:58.721Z,26.40
2022-12-16T16:12:44.004Z,28.37
2022-12-16T16:15:32.624Z,28.23
2022-12-16T16:18:21.445Z,27.90
2022-12-16T16:21:08.760Z,29.63
2022-12-16T16:23:54.164Z,27.77
2022-12-16T16:26:41.812Z,26.53
2022-12-16T16:29:29.321Z,29.23
2022-12-16T16:32:14.449Z,29.00
2022-12-16T16:34:59.684Z,28.87
2022-12-16T16:37:44.824Z,27.50
2022-12-16T16:40:36.149Z,28.13
2022-12-16T16:43:21.467Z,29.93
2022-12-16T16:46:13.113Z,28.17
2022-12-16T16:48:58.836Z,28.63
2022-12-16T16:51:44.077Z,27.33
2022-12-16T16:54:29.050Z,27.40
2022-12-16T16:57:14.183Z,28.13
2022-12-16T16:59:59.707Z,29.13
2022-12-16T17:02:44.745Z,29.77
2022-12-16T17:05:30.715Z,29.80
2022-12-16T17:08:16.667Z,30.70
2022-12-16T17:11:02.402Z,31.63
2022-12-16T17:14:01.041Z,30.87
2022-12-16T17:16:45.835Z,33.87
2022-12-16T17:19:30.848Z,32.43
2022-12-16T17:22:17.100Z,29.60
2022-12-16T17:25:02.099Z,31.47
2022-12-16T17:27:47.757Z,32.10
2022-12-16T17:30:36.147Z,29.50
2022-12-16T17:33:21.643Z,31.73
2022-12-16T17:36:08.271Z,31.27
2022-12-16T17:38:58.198Z,32.47
2022-12-16T17:41:43.553Z,33.23
2022-12-16T17:44:28.427Z,31.40
2022-12-16T17:47:13.349Z,30.30
2022-12-16T17:49:58.541Z,31.60
2022-12-16T17:52:44.159Z,31.93
2022-12-16T17:55:29.636Z,31.37
2022-12-16T17:58:15.160Z,31.27
2022-12-16T18:01:00.979Z,30.90
2022-12-16T18:03:46.645Z,32.30
2022-12-16T18:06:31.879Z,31.63
2022-12-16T18:09:17.344Z,37.80
2022-12-16T18:12:02.842Z,32.77
2022-12-16T18:14:47.789Z,32.43
2022-12-16T18:17:32.738Z,31.07
2022-12-16T18:20:17.899Z,30.27
2022-12-16T18:23:03.147Z,31.20
2022-12-16T18:25:48.256Z,30.63
2022-12-16T18:28:33.274Z,30.03
2022-12-16T18:31:23.566Z,30.17
2022-12-16T18:34:09.298Z,31.83
2022-12-16T18:36:54.487Z,31.57
2022-12-16T18:39:39.731Z,33.13
2022-12-16T18:42:24.624Z,33.20
2022-12-16T18:45:10.188Z,33.20
2022-12-16T18:47:55.843Z,32.40
2022-12-16T18:50:40.822Z,33.47
2022-12-16T18:53:25.741Z,33.53
2022-12-16T18:56:25.371Z,35.60
2022-12-16T18:59:11.364Z,33.47
2022-12-16T19:01:56.804Z,35.13
2022-12-16T19:04:42.149Z,35.07
2022-12-16T19:07:27.504Z,33.80
2022-12-16T19:10:13.023Z,35.13
2022-12-16T19:12:58.135Z,33.23
2022-12-16T19:15:43.373Z,34.80
2022-12-16T19:18:30.388Z,32.93
2022-12-16T19:21:16.030Z,32.87
2022-12-16T19:24:02.080Z,32.80
2022-12-16T19:26:46.901Z,33.13
2022-12-16T19:29:31.828Z,31.80
2022-12-16T19:32:17.081Z,32.30
2022-12-16T19:35:02.173Z,32.67
2022-12-16T19:37:47.152Z,31.57
2022-12-16T19:40:32.326Z,33.13
2022-12-16T19:43:17.334Z,33.63
2022-12-16T19:46:02.316Z,32.53
2022-12-16T19:48:50.399Z,34.13
2022-12-16T19:51:35.414Z,33.73
2022-12-16T19:54:20.324Z,32.07
2022-12-16T19:57:05.308Z,31.90
2022-12-16T19:59:50.211Z,34.07
2022-12-16T20:02:35.282Z,33.63
2022-12-16T20:05:20.565Z,34.83
2022-12-16T20:08:05.630Z,34.03
2022-12-16T20:10:50.967Z,34.70
2022-12-16T20:13:36.772Z,34.07
2022-12-16T20:16:26.417Z,36.10
2022-12-16T20:19:11.845Z,39.77
2022-12-16T20:22:00.690Z,39.03
2022-12-16T20:24:49.622Z,41.97
2022-12-16T20:27:34.661Z,43.53
2022-12-16T20:30:19.573Z,44.87
2022-12-16T20:33:06.302Z,44.03
2022-12-16T20:35:51.200Z,39.90
2022-12-16T20:38:36.701Z,37.70
2022-12-16T20:41:22.945Z,40.93
2022-12-16T20:44:09.277Z,39.50
2022-12-16T20:46:56.328Z,40.87
2022-12-16T20:49:41.703Z,37.53
2022-12-16T20:52:26.537Z,38.93
2022-12-16T20:55:11.335Z,39.07
2022-12-16T20:57:56.376Z,36.60
2022-12-16T21:00:41.651Z,36.97
2022-12-16T21:03:28.004Z,37.17
2022-12-16T21:06:13.453Z,35.67
2022-12-16T21:08:58.766Z,35.10
2022-12-16T21:11:43.888Z,33.33
2022-12-16T21:14:28.819Z,33.63
2022-12-16T21:17:13.634Z,31.23
2022-12-16T21:19:58.551Z,34.93
2022-12-16T21:22:43.498Z,35.67
2022-12-16T21:25:28.365Z,32.17
2022-12-16T21:28:17.684Z,34.80
2022-12-16T21:31:03.266Z,34.67
2022-12-16T21:33:49.388Z,32.70
2022-12-16T21:36:39.659Z,33.60
2022-12-16T21:39:38.217Z,33.03
2022-12-16T21:42:23.137Z,33.13
2022-12-16T21:45:08.051Z,33.97
2022-12-16T21:47:52.851Z,33.23
2022-12-16T21:50:41.040Z,34.50
2022-12-16T21:53:26.273Z,35.20
2022-12-16T21:56:11.949Z,32.17
2022-12-16T21:58:56.946Z,31.67
2022-12-16T22:01:42.031Z,32.77
2022-12-16T22:04:27.999Z,33.13
2022-12-16T22:07:12.911Z,29.97
2022-12-16T22:09:58.246Z,32.00
2022-12-16T22:12:43.160Z,31.60
2022-12-16T22:15:28.698Z,32.93
2022-12-16T22:18:14.623Z,33.07
2022-12-16T22:20:59.681Z,34.23
2022-12-16T22:23:48.217Z,33.20
2022-12-16T22:26:33.537Z,31.37
2022-12-16T22:29:18.956Z,34.13
2022-12-16T22:32:08.377Z,31.20
2022-12-16T22:34:53.485Z,30.30
2022-12-16T22:37:40.949Z,30.60
2022-12-16T22:40:27.241Z,31.50
2022-12-16T22:43:12.111Z,32.37
2022-12-16T22:45:57.069Z,31.17
2022-12-16T22:48:42.294Z,32.00
2022-12-16T22:51:31.257Z,31.63
2022-12-16T22:54:16.595Z,30.77
2022-12-16T22:57:09.682Z,29.47
2022-12-16T22:59:54.793Z,29.40
2022-12-16T23:02:41.935Z,30.40
2022-12-16T23:05:28.261Z,27.80
2022-12-16T23:08:13.926Z,28.90
2022-12-16T23:10:59.594Z,30.77
2022-12-16T23:13:46.018Z,28.77
2022-12-16T23:16:31.526Z,29.77
2022-12-16T23:19:16.672Z,27.73
2022-12-16T23:22:01.512Z,28.27
2022-12-16T23:24:46.513Z,29.27
2022-12-16T23:27:31.633Z,27.43
2022-12-16T23:30:16.737Z,27.73
2022-12-16T23:33:01.664Z,26.77
2022-12-16T23:35:46.758Z,29.70
2022-12-16T23:38:31.596Z,27.73
2022-12-16T23:41:17.601Z,26.97
2022-12-16T23:44:03.580Z,27.27
2022-12-16T23:46:49.021Z,28.27
2022-12-16T23:49:34.283Z,28.77
2022-12-16T23:52:19.143Z,27.97
2022-12-16T23:55:04.261Z,26.23
2022-12-16T23:57:49.381Z,26.53
